Terminal Aerodrome Forecast
Issued by NWS Jacksonville, FL

Home | Current Version | Previous Version | Text Only | Print | Product List | Glossary On
Versions: 1 2 3 4 5 6 7 8 9 10 11 12 13 14 15 16 17 18 19
531
FTUS42 KJAX 312116 AAC
TAFSSI
TAF AMD
KSSI 312116Z 3121/0118 09010KT P6SM VCTS SCT050CB SCT120
      TEMPO 3121/3123 VRB12G22KT 3SM TSRA BKN035CB
     FM010200 17005KT P6SM FEW050 SCT100
     FM010700 24004KT P6SM FEW050 SCT100
     FM011400 28007KT P6SM SCT030=

USA.gov is the U.S. government's official web portal to all federal, state and local government web resources and services.